DAL564 KATL-KMIA
Flight info
| Callsign | DAL564 |
|---|---|
| Flight time | N/A |
| Altitude | 36000 |
| Route | BANNG3 LUCKK HONID FROGZ5 |
| Aircraft | B752/M-SDE3FGHIM3RWXY/LB1 |
Departure
| Time | 2026-05-05 19:47 |
|---|---|
| Airport | Hartsfield Jackson Atlanta International Airport (KATL) |
Arrival
| Time | N/A |
|---|---|
| Airport | Miami International Airport (KMIA) |
| Time | Latitude | Longitude | Altitude | Speed | Heading |
|---|---|---|---|---|---|
| 2026-05-05 19:10 | 33.63833 | -84.42516 | 999 ft | 0 kts | 270° |
| 2026-05-05 19:35 | 33.63833 | -84.42494 | 998 ft | 3 kts | 270° |
| 2026-05-05 19:35 | 33.63833 | -84.42474 | 997 ft | 2 kts | 273° |
| 2026-05-05 19:36 | 33.63831 | -84.42461 | 997 ft | 1 kts | 285° |
| 2026-05-05 19:36 | 33.63827 | -84.42449 | 996 ft | 1 kts | 304° |
| 2026-05-05 19:36 | 33.63822 | -84.42442 | 996 ft | 1 kts | 320° |
| 2026-05-05 19:36 | 33.63815 | -84.42436 | 996 ft | 1 kts | 335° |
| 2026-05-05 19:37 | 33.63808 | -84.42433 | 996 ft | 1 kts | 351° |
| 2026-05-05 19:37 | 33.63800 | -84.42432 | 995 ft | 0 kts | 359° |
| 2026-05-05 19:37 | 33.63799 | -84.42432 | 995 ft | 0 kts | 0° |
| 2026-05-05 19:40 | 33.63804 | -84.42432 | 995 ft | 2 kts | 0° |
| 2026-05-05 19:40 | 33.63827 | -84.42432 | 995 ft | 3 kts | 2° |
| 2026-05-05 19:41 | 33.63859 | -84.42425 | 995 ft | 5 kts | 13° |
| 2026-05-05 19:41 | 33.63898 | -84.42413 | 995 ft | 5 kts | 22° |
| 2026-05-05 19:41 | 33.63927 | -84.42375 | 993 ft | 6 kts | 70° |
| 2026-05-05 19:41 | 33.63931 | -84.42336 | 992 ft | 3 kts | 90° |
| 2026-05-05 19:42 | 33.63931 | -84.42328 | 992 ft | 2 kts | 90° |
| 2026-05-05 19:42 | 33.63927 | -84.42281 | 990 ft | 8 kts | 111° |
| 2026-05-05 19:42 | 33.63882 | -84.42240 | 988 ft | 8 kts | 172° |
| 2026-05-05 19:42 | 33.63799 | -84.42234 | 988 ft | 13 kts | 180° |
| 2026-05-05 19:43 | 33.63707 | -84.42232 | 988 ft | 11 kts | 172° |
| 2026-05-05 19:43 | 33.63657 | -84.42172 | 986 ft | 11 kts | 95° |
| 2026-05-05 19:43 | 33.63655 | -84.42072 | 982 ft | 12 kts | 91° |
| 2026-05-05 19:43 | 33.63654 | -84.41954 | 977 ft | 15 kts | 91° |
| 2026-05-05 19:44 | 33.63653 | -84.41811 | 969 ft | 18 kts | 88° |
| 2026-05-05 19:44 | 33.63654 | -84.41657 | 967 ft | 18 kts | 90° |
| 2026-05-05 19:44 | 33.63654 | -84.41505 | 964 ft | 18 kts | 91° |
| 2026-05-05 19:44 | 33.63654 | -84.41360 | 964 ft | 16 kts | 90° |
| 2026-05-05 19:45 | 33.63654 | -84.41229 | 963 ft | 14 kts | 90° |
| 2026-05-05 19:45 | 33.63654 | -84.41151 | 963 ft | 14 kts | 90° |
| 2026-05-05 19:45 | 33.63653 | -84.40969 | 959 ft | 18 kts | 91° |
| 2026-05-05 19:45 | 33.63651 | -84.40822 | 953 ft | 14 kts | 92° |
| 2026-05-05 19:46 | 33.63589 | -84.40740 | 949 ft | 17 kts | 178° |
| 2026-05-05 19:46 | 33.63487 | -84.40746 | 949 ft | 13 kts | 208° |
| 2026-05-05 19:46 | 33.63472 | -84.40884 | 956 ft | 32 kts | 270° |
| 2026-05-05 19:46 | 33.63472 | -84.41391 | 965 ft | 91 kts | 270° |
| 2026-05-05 19:47 | 33.63473 | -84.42390 | 994 ft | 145 kts | 269° |
| 2026-05-05 19:47 | 33.63491 | -84.43784 | 1105 ft | 184 kts | 266° |
| 2026-05-05 19:47 | 33.63487 | -84.45332 | 1584 ft | 184 kts | 265° |
| 2026-05-05 19:47 | 33.63478 | -84.46890 | 2047 ft | 194 kts | 267° |
| 2026-05-05 19:48 | 33.63481 | -84.48489 | 2510 ft | 198 kts | 266° |
| 2026-05-05 19:48 | 33.63475 | -84.50228 | 2744 ft | 215 kts | 266° |
| 2026-05-05 19:48 | 33.63473 | -84.52058 | 3133 ft | 225 kts | 267° |
| 2026-05-05 19:48 | 33.63472 | -84.53966 | 3523 ft | 238 kts | 267° |
| 2026-05-05 19:49 | 33.63467 | -84.56030 | 3820 ft | 256 kts | 267° |
| 2026-05-05 19:49 | 33.63465 | -84.57477 | 4067 ft | 266 kts | 267° |
| 2026-05-05 19:49 | 33.63462 | -84.60442 | 4948 ft | 270 kts | 267° |
| 2026-05-05 19:49 | 33.63456 | -84.62708 | 5617 ft | 272 kts | 265° |
| 2026-05-05 19:50 | 33.63041 | -84.64883 | 6223 ft | 272 kts | 240° |
| 2026-05-05 19:50 | 33.61820 | -84.66550 | 6934 ft | 269 kts | 215° |
| 2026-05-05 19:50 | 33.60254 | -84.67754 | 7556 ft | 272 kts | 212° |
| 2026-05-05 19:50 | 33.58619 | -84.68919 | 8278 ft | 273 kts | 205° |
| 2026-05-05 19:51 | 33.56730 | -84.69398 | 8855 ft | 285 kts | 180° |
| 2026-05-05 19:51 | 33.54757 | -84.69105 | 9505 ft | 289 kts | 175° |
| 2026-05-05 19:51 | 33.52742 | -84.68766 | 9957 ft | 300 kts | 175° |
| 2026-05-05 19:51 | 33.50619 | -84.68394 | 10151 ft | 321 kts | 175° |
| 2026-05-05 19:52 | 33.48355 | -84.67981 | 10672 ft | 329 kts | 174° |
| 2026-05-05 19:52 | 33.46109 | -84.67564 | 11320 ft | 332 kts | 175° |
| 2026-05-05 19:52 | 33.43809 | -84.67135 | 11913 ft | 337 kts | 175° |
| 2026-05-05 19:52 | 33.41518 | -84.66466 | 12529 ft | 344 kts | 162° |
| 2026-05-05 19:53 | 33.39278 | -84.65292 | 13083 ft | 350 kts | 159° |
| 2026-05-05 19:53 | 33.37046 | -84.64105 | 13631 ft | 354 kts | 160° |
| 2026-05-05 19:53 | 33.34793 | -84.62898 | 14167 ft | 358 kts | 160° |
| 2026-05-05 19:53 | 33.32499 | -84.61667 | 14677 ft | 363 kts | 160° |
| 2026-05-05 19:54 | 33.30188 | -84.60425 | 15187 ft | 366 kts | 160° |
| 2026-05-05 19:54 | 33.27856 | -84.59171 | 15627 ft | 372 kts | 160° |
| 2026-05-05 19:54 | 33.25500 | -84.57903 | 16110 ft | 375 kts | 160° |
| 2026-05-05 19:54 | 33.23112 | -84.56619 | 16526 ft | 380 kts | 160° |
| 2026-05-05 19:55 | 33.20673 | -84.55307 | 17023 ft | 383 kts | 160° |
| 2026-05-05 19:55 | 33.18241 | -84.54000 | 17428 ft | 388 kts | 160° |
| 2026-05-05 19:55 | 33.15779 | -84.52678 | 17863 ft | 391 kts | 160° |
| 2026-05-05 19:55 | 33.13312 | -84.51353 | 18348 ft | 393 kts | 160° |
| 2026-05-05 19:56 | 33.10799 | -84.50005 | 18750 ft | 397 kts | 160° |
| 2026-05-05 19:56 | 33.08249 | -84.48638 | 19171 ft | 401 kts | 160° |
| 2026-05-05 19:56 | 33.05709 | -84.47278 | 19620 ft | 403 kts | 160° |
| 2026-05-05 19:56 | 33.03129 | -84.45896 | 19995 ft | 408 kts | 160° |
| 2026-05-05 19:57 | 33.00531 | -84.44507 | 20422 ft | 411 kts | 160° |
| 2026-05-05 19:57 | 32.98813 | -84.43587 | 20752 ft | 411 kts | 160° |
| 2026-05-05 19:57 | 32.95176 | -84.42312 | 21197 ft | 406 kts | 179° |
| 2026-05-05 19:57 | 32.92354 | -84.42150 | 21629 ft | 404 kts | 184° |
| 2026-05-05 19:58 | 32.89561 | -84.42059 | 22071 ft | 406 kts | 184° |
| 2026-05-05 19:58 | 32.86708 | -84.41978 | 22389 ft | 412 kts | 184° |
| 2026-05-05 19:58 | 32.83838 | -84.41908 | 22814 ft | 413 kts | 185° |
| 2026-05-05 19:58 | 32.80959 | -84.41843 | 23236 ft | 416 kts | 185° |
| 2026-05-05 19:59 | 32.78035 | -84.41780 | 23595 ft | 420 kts | 185° |
| 2026-05-05 19:59 | 32.75120 | -84.41719 | 24027 ft | 421 kts | 185° |
| 2026-05-05 19:59 | 32.72188 | -84.41660 | 24391 ft | 424 kts | 185° |
| 2026-05-05 19:59 | 32.69199 | -84.41600 | 24688 ft | 429 kts | 185° |
| 2026-05-05 20:00 | 32.66193 | -84.41539 | 25066 ft | 431 kts | 185° |
| 2026-05-05 20:00 | 32.63197 | -84.41478 | 25390 ft | 435 kts | 185° |
| 2026-05-05 20:00 | 32.60162 | -84.41416 | 25841 ft | 434 kts | 185° |
| 2026-05-05 20:00 | 32.57127 | -84.41357 | 26034 ft | 441 kts | 185° |
| 2026-05-05 20:01 | 32.54063 | -84.41296 | 26403 ft | 442 kts | 185° |
| 2026-05-05 20:01 | 32.50957 | -84.41234 | 26669 ft | 447 kts | 185° |
| 2026-05-05 20:01 | 32.47885 | -84.41172 | 27033 ft | 448 kts | 185° |
| 2026-05-05 20:01 | 32.44733 | -84.41110 | 27298 ft | 452 kts | 185° |
| 2026-05-05 20:02 | 32.41584 | -84.41046 | 27644 ft | 453 kts | 185° |
| 2026-05-05 20:02 | 32.38422 | -84.40983 | 27951 ft | 456 kts | 186° |
| 2026-05-05 20:02 | 32.35241 | -84.40920 | 28205 ft | 460 kts | 185° |
| 2026-05-05 20:02 | 32.32045 | -84.40856 | 28571 ft | 461 kts | 185° |
| 2026-05-05 20:03 | 32.28809 | -84.40792 | 28798 ft | 465 kts | 186° |
| 2026-05-05 20:03 | 32.25590 | -84.40726 | 29164 ft | 466 kts | 186° |
| 2026-05-05 20:03 | 32.22325 | -84.40663 | 29339 ft | 471 kts | 185° |
| 2026-05-05 20:03 | 32.19039 | -84.40596 | 29630 ft | 473 kts | 186° |
| 2026-05-05 20:04 | 32.15767 | -84.40530 | 29882 ft | 476 kts | 186° |
| 2026-05-05 20:04 | 32.12397 | -84.40464 | 30115 ft | 479 kts | 186° |
| 2026-05-05 20:04 | 32.09066 | -84.40397 | 30385 ft | 481 kts | 186° |
| 2026-05-05 20:04 | 32.05703 | -84.40331 | 30512 ft | 486 kts | 186° |
| 2026-05-05 20:05 | 32.02344 | -84.40263 | 30827 ft | 486 kts | 186° |
| 2026-05-05 20:05 | 31.95509 | -84.40125 | 31284 ft | 490 kts | 187° |
| 2026-05-05 20:06 | 31.88647 | -84.39993 | 31505 ft | 498 kts | 187° |
| 2026-05-05 20:06 | 31.85196 | -84.39922 | 31756 ft | 498 kts | 187° |
| 2026-05-05 20:06 | 31.81712 | -84.39854 | 31873 ft | 502 kts | 187° |
| 2026-05-05 20:07 | 31.74612 | -84.39718 | 31890 ft | 513 kts | 187° |
| 2026-05-05 20:07 | 31.67405 | -84.39572 | 31922 ft | 525 kts | 185° |
| 2026-05-05 20:07 | 31.63730 | -84.39154 | 32082 ft | 535 kts | 176° |
| 2026-05-05 20:08 | 31.60073 | -84.38287 | 32245 ft | 539 kts | 175° |
| 2026-05-05 20:08 | 31.52689 | -84.36454 | 32489 ft | 543 kts | 174° |
| 2026-05-05 20:08 | 31.49008 | -84.35530 | 32729 ft | 541 kts | 174° |
| 2026-05-05 20:09 | 31.45336 | -84.34604 | 33004 ft | 539 kts | 175° |
| 2026-05-05 20:09 | 31.37992 | -84.32755 | 33291 ft | 540 kts | 175° |
| 2026-05-05 20:10 | 31.30638 | -84.30904 | 33556 ft | 542 kts | 175° |
| 2026-05-05 20:10 | 31.26971 | -84.29978 | 33876 ft | 539 kts | 175° |
| 2026-05-05 20:10 | 31.23278 | -84.29049 | 34074 ft | 539 kts | 175° |
| 2026-05-05 20:10 | 31.19631 | -84.28133 | 34204 ft | 540 kts | 176° |
| 2026-05-05 20:11 | 31.15999 | -84.27218 | 34577 ft | 535 kts | 176° |
| 2026-05-05 20:11 | 31.12332 | -84.26298 | 34790 ft | 535 kts | 176° |
| 2026-05-05 20:11 | 31.08683 | -84.25385 | 34901 ft | 536 kts | 176° |
| 2026-05-05 20:11 | 31.05050 | -84.24475 | 35011 ft | 537 kts | 176° |
| 2026-05-05 20:12 | 31.01383 | -84.23555 | 35260 ft | 536 kts | 176° |
| 2026-05-05 20:12 | 30.94086 | -84.21730 | 35545 ft | 535 kts | 176° |
| 2026-05-05 20:12 | 30.90467 | -84.20826 | 35711 ft | 535 kts | 176° |
| 2026-05-05 20:13 | 30.86835 | -84.19920 | 35743 ft | 536 kts | 176° |
| 2026-05-05 20:13 | 30.83192 | -84.19009 | 36011 ft | 531 kts | 176° |
| 2026-05-05 20:13 | 30.79570 | -84.18105 | 35959 ft | 531 kts | 176° |
| 2026-05-05 20:14 | 30.72384 | -84.16317 | 35971 ft | 527 kts | 176° |
| 2026-05-05 20:14 | 30.65264 | -84.14545 | 35994 ft | 522 kts | 176° |
| 2026-05-05 20:15 | 30.58144 | -84.12779 | 35997 ft | 524 kts | 176° |
| 2026-05-05 20:15 | 30.51009 | -84.11010 | 36003 ft | 523 kts | 176° |
| 2026-05-05 20:16 | 30.43899 | -84.09249 | 36021 ft | 522 kts | 176° |
| 2026-05-05 20:16 | 30.36885 | -84.06959 | 36039 ft | 535 kts | 163° |
| 2026-05-05 20:17 | 30.30246 | -84.02863 | 36019 ft | 544 kts | 155° |
| 2026-05-05 20:17 | 30.23693 | -83.98551 | 36019 ft | 540 kts | 156° |
| 2026-05-05 20:18 | 30.17166 | -83.94237 | 36023 ft | 541 kts | 155° |
| 2026-05-05 20:18 | 30.10632 | -83.89920 | 36028 ft | 541 kts | 155° |
| 2026-05-05 20:19 | 30.04081 | -83.85590 | 36029 ft | 540 kts | 155° |
| 2026-05-05 20:19 | 29.97578 | -83.81303 | 36041 ft | 541 kts | 155° |
| 2026-05-05 20:20 | 29.91046 | -83.77002 | 36036 ft | 542 kts | 155° |
| 2026-05-05 20:20 | 29.84526 | -83.72714 | 36026 ft | 541 kts | 155° |
| 2026-05-05 20:21 | 29.77984 | -83.68421 | 36012 ft | 541 kts | 155° |
| 2026-05-05 20:21 | 29.71416 | -83.64115 | 36013 ft | 542 kts | 155° |
| 2026-05-05 20:22 | 29.64924 | -83.59866 | 36022 ft | 538 kts | 155° |
| 2026-05-05 20:22 | 29.58374 | -83.55583 | 36023 ft | 540 kts | 155° |
| 2026-05-05 20:23 | 29.51834 | -83.51318 | 36021 ft | 541 kts | 155° |
| 2026-05-05 20:23 | 29.45311 | -83.47066 | 36029 ft | 539 kts | 155° |
| 2026-05-05 20:24 | 29.38794 | -83.42826 | 36027 ft | 539 kts | 154° |
| 2026-05-05 20:24 | 29.32272 | -83.38589 | 36023 ft | 538 kts | 155° |
| 2026-05-05 20:25 | 29.25784 | -83.34402 | 36020 ft | 535 kts | 158° |
| 2026-05-05 20:25 | 29.19016 | -83.30894 | 36006 ft | 532 kts | 162° |
| 2026-05-05 20:26 | 29.12241 | -83.27466 | 36015 ft | 534 kts | 162° |
| 2026-05-05 20:26 | 29.05462 | -83.24034 | 36015 ft | 532 kts | 161° |
| 2026-05-05 20:27 | 28.98691 | -83.20608 | 36017 ft | 533 kts | 162° |
| 2026-05-05 20:27 | 28.91951 | -83.17203 | 36012 ft | 532 kts | 162° |
| 2026-05-05 20:28 | 28.85138 | -83.13766 | 35999 ft | 531 kts | 162° |
| 2026-05-05 20:28 | 28.78380 | -83.10363 | 36001 ft | 532 kts | 161° |
| 2026-05-05 20:29 | 28.71594 | -83.06949 | 36004 ft | 532 kts | 161° |
| 2026-05-05 20:29 | 28.64858 | -83.03565 | 36004 ft | 532 kts | 162° |
| 2026-05-05 20:30 | 28.58044 | -83.00149 | 36006 ft | 534 kts | 161° |
| 2026-05-05 20:30 | 28.51263 | -82.96751 | 36008 ft | 532 kts | 161° |
| 2026-05-05 20:31 | 28.44499 | -82.93366 | 36005 ft | 529 kts | 161° |
| 2026-05-05 20:31 | 28.37796 | -82.90018 | 36011 ft | 530 kts | 161° |
| 2026-05-05 20:32 | 28.31025 | -82.86641 | 36004 ft | 530 kts | 161° |
| 2026-05-05 20:32 | 28.24305 | -82.83294 | 36005 ft | 530 kts | 161° |
| 2026-05-05 20:33 | 28.17522 | -82.79919 | 36012 ft | 529 kts | 161° |
| 2026-05-05 20:33 | 28.10838 | -82.76600 | 36020 ft | 527 kts | 161° |
| 2026-05-05 20:34 | 28.04055 | -82.73241 | 36023 ft | 529 kts | 162° |
| 2026-05-05 20:34 | 27.97075 | -82.71049 | 36034 ft | 518 kts | 176° |
| 2026-05-05 20:35 | 27.90033 | -82.69597 | 36019 ft | 517 kts | 176° |
| 2026-05-05 20:35 | 27.82898 | -82.68165 | 36013 ft | 515 kts | 176° |
| 2026-05-05 20:36 | 27.75878 | -82.66775 | 36012 ft | 516 kts | 176° |
| 2026-05-05 20:36 | 27.68817 | -82.65383 | 35998 ft | 514 kts | 176° |
| 2026-05-05 20:37 | 27.61758 | -82.63995 | 35994 ft | 516 kts | 176° |
| 2026-05-05 20:37 | 27.54665 | -82.62603 | 35998 ft | 515 kts | 176° |
| 2026-05-05 20:38 | 27.47644 | -82.60720 | 36000 ft | 520 kts | 171° |
| 2026-05-05 20:38 | 27.40626 | -82.58638 | 36000 ft | 520 kts | 171° |
| 2026-05-05 20:39 | 27.33663 | -82.56588 | 36001 ft | 519 kts | 171° |
| 2026-05-05 20:39 | 27.26623 | -82.54523 | 35997 ft | 519 kts | 171° |
| 2026-05-05 20:40 | 27.19663 | -82.52484 | 35995 ft | 519 kts | 171° |
| 2026-05-05 20:40 | 27.12649 | -82.50433 | 35996 ft | 518 kts | 171° |
| 2026-05-05 20:41 | 27.07999 | -82.49075 | 35998 ft | 518 kts | 171° |